sensor_id;sensor_type;location;lat;lon;timestamp;P1;durP1;ratioP1;P2;durP2;ratioP2
1799;SDS011;919;48.274;12.292;2024-03-06T00:02:22;15.07;;;9.70;;
1799;SDS011;919;48.274;12.292;2024-03-06T00:04:49;22.30;;;11.50;;
1799;SDS011;919;48.274;12.292;2024-03-06T00:07:16;13.93;;;9.27;;
1799;SDS011;919;48.274;12.292;2024-03-06T00:09:44;17.40;;;11.10;;
1799;SDS011;919;48.274;12.292;2024-03-06T00:12:11;18.17;;;10.83;;
1799;SDS011;919;48.274;12.292;2024-03-06T00:14:38;13.77;;;10.10;;
1799;SDS011;919;48.274;12.292;2024-03-06T00:17:04;14.80;;;9.67;;
1799;SDS011;919;48.274;12.292;2024-03-06T00:19:32;14.50;;;9.40;;
1799;SDS011;919;48.274;12.292;2024-03-06T00:21:59;14.47;;;9.17;;
1799;SDS011;919;48.274;12.292;2024-03-06T00:24:27;14.90;;;10.03;;
1799;SDS011;919;48.274;12.292;2024-03-06T00:26:55;15.87;;;10.50;;
1799;SDS011;919;48.274;12.292;2024-03-06T00:29:22;16.20;;;9.60;;
1799;SDS011;919;48.274;12.292;2024-03-06T00:31:49;14.87;;;9.60;;
1799;SDS011;919;48.274;12.292;2024-03-06T00:34:15;9.47;;;7.53;;
1799;SDS011;919;48.274;12.292;2024-03-06T00:36:42;17.60;;;10.47;;
1799;SDS011;919;48.274;12.292;2024-03-06T00:39:09;13.67;;;10.40;;
1799;SDS011;919;48.274;12.292;2024-03-06T00:41:36;19.20;;;11.90;;
1799;SDS011;919;48.274;12.292;2024-03-06T00:44:04;18.47;;;11.80;;
1799;SDS011;919;48.274;12.292;2024-03-06T00:46:31;19.57;;;13.10;;
1799;SDS011;919;48.274;12.292;2024-03-06T00:48:58;15.70;;;10.53;;
1799;SDS011;919;48.274;12.292;2024-03-06T00:51:25;18.57;;;12.53;;
1799;SDS011;919;48.274;12.292;2024-03-06T00:53:52;17.83;;;11.33;;
1799;SDS011;919;48.274;12.292;2024-03-06T00:56:18;18.30;;;12.50;;
1799;SDS011;919;48.274;12.292;2024-03-06T00:58:45;19.70;;;12.33;;
1799;SDS011;919;48.274;12.292;2024-03-06T01:01:13;19.03;;;11.40;;
1799;SDS011;919;48.274;12.292;2024-03-06T01:03:42;22.83;;;12.80;;
1799;SDS011;919;48.274;12.292;2024-03-06T01:06:09;23.03;;;13.03;;
1799;SDS011;919;48.274;12.292;2024-03-06T01:08:36;20.37;;;11.40;;
1799;SDS011;919;48.274;12.292;2024-03-06T01:11:02;23.00;;;12.87;;
1799;SDS011;919;48.274;12.292;2024-03-06T01:13:30;22.20;;;11.67;;
1799;SDS011;919;48.274;12.292;2024-03-06T01:15:57;19.63;;;12.10;;
1799;SDS011;919;48.274;12.292;2024-03-06T01:18:25;18.80;;;10.47;;
1799;SDS011;919;48.274;12.292;2024-03-06T01:20:52;17.80;;;11.77;;
1799;SDS011;919;48.274;12.292;2024-03-06T01:23:19;17.07;;;11.77;;
1799;SDS011;919;48.274;12.292;2024-03-06T01:25:45;20.50;;;12.43;;
1799;SDS011;919;48.274;12.292;2024-03-06T01:28:12;19.77;;;12.67;;
1799;SDS011;919;48.274;12.292;2024-03-06T01:30:39;24.70;;;13.53;;
1799;SDS011;919;48.274;12.292;2024-03-06T01:33:05;23.87;;;12.40;;
1799;SDS011;919;48.274;12.292;2024-03-06T01:35:34;25.20;;;14.33;;
1799;SDS011;919;48.274;12.292;2024-03-06T01:38:00;30.33;;;15.20;;
1799;SDS011;919;48.274;12.292;2024-03-06T01:40:27;29.83;;;13.23;;
1799;SDS011;919;48.274;12.292;2024-03-06T01:42:54;25.03;;;13.40;;
1799;SDS011;919;48.274;12.292;2024-03-06T01:45:21;24.10;;;13.63;;
1799;SDS011;919;48.274;12.292;2024-03-06T01:47:48;18.43;;;11.80;;
1799;SDS011;919;48.274;12.292;2024-03-06T01:50:15;21.60;;;13.43;;
1799;SDS011;919;48.274;12.292;2024-03-06T01:52:44;21.37;;;13.17;;
1799;SDS011;919;48.274;12.292;2024-03-06T01:55:12;23.23;;;13.47;;
1799;SDS011;919;48.274;12.292;2024-03-06T01:57:40;24.63;;;13.40;;
1799;SDS011;919;48.274;12.292;2024-03-06T02:00:08;24.90;;;13.80;;
1799;SDS011;919;48.274;12.292;2024-03-06T02:02:38;25.87;;;12.47;;
1799;SDS011;919;48.274;12.292;2024-03-06T02:05:06;23.37;;;12.77;;
1799;SDS011;919;48.274;12.292;2024-03-06T02:07:33;24.20;;;13.73;;
1799;SDS011;919;48.274;12.292;2024-03-06T02:10:03;19.97;;;13.07;;
1799;SDS011;919;48.274;12.292;2024-03-06T02:12:32;23.53;;;14.03;;
1799;SDS011;919;48.274;12.292;2024-03-06T02:14:58;22.63;;;12.60;;
1799;SDS011;919;48.274;12.292;2024-03-06T02:17:25;23.40;;;13.43;;
1799;SDS011;919;48.274;12.292;2024-03-06T02:19:54;22.90;;;12.43;;
1799;SDS011;919;48.274;12.292;2024-03-06T02:22:24;23.27;;;13.20;;
1799;SDS011;919;48.274;12.292;2024-03-06T02:24:51;16.80;;;10.67;;
1799;SDS011;919;48.274;12.292;2024-03-06T02:27:18;19.10;;;11.33;;
1799;SDS011;919;48.274;12.292;2024-03-06T02:29:45;15.40;;;10.53;;
1799;SDS011;919;48.274;12.292;2024-03-06T02:32:12;17.10;;;10.83;;
1799;SDS011;919;48.274;12.292;2024-03-06T02:34:39;18.90;;;11.07;;
1799;SDS011;919;48.274;12.292;2024-03-06T02:37:06;20.80;;;11.70;;
1799;SDS011;919;48.274;12.292;2024-03-06T02:39:34;20.63;;;10.40;;
1799;SDS011;919;48.274;12.292;2024-03-06T02:42:01;22.83;;;11.33;;
1799;SDS011;919;48.274;12.292;2024-03-06T02:44:29;24.80;;;13.50;;
1799;SDS011;919;48.274;12.292;2024-03-06T02:46:56;22.93;;;12.60;;
1799;SDS011;919;48.274;12.292;2024-03-06T02:49:22;22.67;;;13.37;;
1799;SDS011;919;48.274;12.292;2024-03-06T02:51:49;15.23;;;11.00;;
1799;SDS011;919;48.274;12.292;2024-03-06T02:54:16;17.80;;;11.30;;
1799;SDS011;919;48.274;12.292;2024-03-06T02:56:45;19.67;;;11.47;;
1799;SDS011;919;48.274;12.292;2024-03-06T02:59:12;24.17;;;13.53;;
1799;SDS011;919;48.274;12.292;2024-03-06T03:01:39;19.53;;;11.30;;
1799;SDS011;919;48.274;12.292;2024-03-06T03:04:05;18.80;;;11.87;;
1799;SDS011;919;48.274;12.292;2024-03-06T03:06:32;18.00;;;10.87;;
1799;SDS011;919;48.274;12.292;2024-03-06T03:08:59;15.97;;;10.80;;
1799;SDS011;919;48.274;12.292;2024-03-06T03:11:26;16.83;;;9.60;;
1799;SDS011;919;48.274;12.292;2024-03-06T03:13:54;17.40;;;9.73;;
1799;SDS011;919;48.274;12.292;2024-03-06T03:16:22;17.10;;;9.30;;
1799;SDS011;919;48.274;12.292;2024-03-06T03:18:48;21.10;;;11.43;;
1799;SDS011;919;48.274;12.292;2024-03-06T03:21:15;18.23;;;10.00;;
1799;SDS011;919;48.274;12.292;2024-03-06T03:23:42;22.73;;;11.03;;
1799;SDS011;919;48.274;12.292;2024-03-06T03:26:09;21.97;;;12.80;;
1799;SDS011;919;48.274;12.292;2024-03-06T03:28:37;15.17;;;10.27;;
1799;SDS011;919;48.274;12.292;2024-03-06T03:31:06;21.53;;;12.37;;
1799;SDS011;919;48.274;12.292;2024-03-06T03:33:34;17.33;;;11.97;;
1799;SDS011;919;48.274;12.292;2024-03-06T03:36:03;27.80;;;12.67;;
1799;SDS011;919;48.274;12.292;2024-03-06T03:38:31;22.63;;;12.43;;
1799;SDS011;919;48.274;12.292;2024-03-06T03:40:57;20.53;;;11.87;;
1799;SDS011;919;48.274;12.292;2024-03-06T03:43:24;23.77;;;13.47;;
1799;SDS011;919;48.274;12.292;2024-03-06T03:45:51;21.80;;;12.17;;
1799;SDS011;919;48.274;12.292;2024-03-06T03:48:19;20.83;;;11.07;;
1799;SDS011;919;48.274;12.292;2024-03-06T03:50:46;16.13;;;11.80;;
1799;SDS011;919;48.274;12.292;2024-03-06T03:53:12;26.83;;;12.27;;
1799;SDS011;919;48.274;12.292;2024-03-06T03:55:39;17.63;;;11.80;;
1799;SDS011;919;48.274;12.292;2024-03-06T03:58:06;20.80;;;11.63;;
1799;SDS011;919;48.274;12.292;2024-03-06T04:00:33;23.10;;;13.13;;
1799;SDS011;919;48.274;12.292;2024-03-06T04:02:59;30.17;;;13.67;;
1799;SDS011;919;48.274;12.292;2024-03-06T04:05:28;25.47;;;11.70;;
1799;SDS011;919;48.274;12.292;2024-03-06T04:07:56;21.83;;;12.00;;
1799;SDS011;919;48.274;12.292;2024-03-06T04:10:23;23.50;;;12.40;;
1799;SDS011;919;48.274;12.292;2024-03-06T04:12:50;25.27;;;14.23;;
1799;SDS011;919;48.274;12.292;2024-03-06T04:15:16;20.03;;;12.90;;
1799;SDS011;919;48.274;12.292;2024-03-06T04:17:44;23.77;;;13.30;;
1799;SDS011;919;48.274;12.292;2024-03-06T04:20:10;20.03;;;11.80;;
1799;SDS011;919;48.274;12.292;2024-03-06T04:22:39;21.40;;;11.50;;
1799;SDS011;919;48.274;12.292;2024-03-06T04:25:06;17.77;;;10.30;;
1799;SDS011;919;48.274;12.292;2024-03-06T04:27:34;19.63;;;11.00;;
1799;SDS011;919;48.274;12.292;2024-03-06T04:30:01;19.50;;;11.40;;
1799;SDS011;919;48.274;12.292;2024-03-06T04:32:29;11.00;;;8.70;;
1799;SDS011;919;48.274;12.292;2024-03-06T04:34:55;18.37;;;11.57;;
1799;SDS011;919;48.274;12.292;2024-03-06T04:37:22;20.60;;;12.17;;
1799;SDS011;919;48.274;12.292;2024-03-06T04:39:53;20.47;;;12.60;;
1799;SDS011;919;48.274;12.292;2024-03-06T04:42:19;18.00;;;11.73;;
1799;SDS011;919;48.274;12.292;2024-03-06T04:44:46;20.73;;;13.87;;
1799;SDS011;919;48.274;12.292;2024-03-06T04:47:13;21.77;;;12.40;;
1799;SDS011;919;48.274;12.292;2024-03-06T04:49:39;27.30;;;14.50;;
1799;SDS011;919;48.274;12.292;2024-03-06T04:52:07;19.43;;;12.40;;
1799;SDS011;919;48.274;12.292;2024-03-06T04:54:34;27.80;;;14.10;;
1799;SDS011;919;48.274;12.292;2024-03-06T04:57:02;23.80;;;14.20;;
1799;SDS011;919;48.274;12.292;2024-03-06T04:59:29;19.60;;;11.67;;
1799;SDS011;919;48.274;12.292;2024-03-06T05:01:56;22.60;;;13.33;;
1799;SDS011;919;48.274;12.292;2024-03-06T05:04:23;28.93;;;16.17;;
1799;SDS011;919;48.274;12.292;2024-03-06T05:06:50;28.13;;;15.53;;
1799;SDS011;919;48.274;12.292;2024-03-06T05:09:16;24.73;;;15.37;;
1799;SDS011;919;48.274;12.292;2024-03-06T05:11:43;27.40;;;16.27;;
1799;SDS011;919;48.274;12.292;2024-03-06T05:14:11;30.70;;;17.07;;
1799;SDS011;919;48.274;12.292;2024-03-06T05:16:38;26.60;;;16.93;;
1799;SDS011;919;48.274;12.292;2024-03-06T05:19:04;30.53;;;17.07;;
1799;SDS011;919;48.274;12.292;2024-03-06T05:21:32;25.20;;;15.30;;
1799;SDS011;919;48.274;12.292;2024-03-06T05:24:00;32.77;;;16.90;;
1799;SDS011;919;48.274;12.292;2024-03-06T05:26:27;26.03;;;15.77;;
1799;SDS011;919;48.274;12.292;2024-03-06T05:28:54;23.43;;;15.57;;
1799;SDS011;919;48.274;12.292;2024-03-06T05:31:22;31.17;;;18.17;;
1799;SDS011;919;48.274;12.292;2024-03-06T05:33:50;25.20;;;16.40;;
1799;SDS011;919;48.274;12.292;2024-03-06T05:36:16;31.60;;;17.70;;
1799;SDS011;919;48.274;12.292;2024-03-06T05:38:44;31.70;;;18.40;;
1799;SDS011;919;48.274;12.292;2024-03-06T05:41:11;25.37;;;17.00;;
1799;SDS011;919;48.274;12.292;2024-03-06T05:43:37;28.27;;;17.77;;
1799;SDS011;919;48.274;12.292;2024-03-06T05:46:06;33.03;;;18.57;;
1799;SDS011;919;48.274;12.292;2024-03-06T05:48:34;29.80;;;18.77;;
1799;SDS011;919;48.274;12.292;2024-03-06T05:51:00;27.63;;;17.47;;
1799;SDS011;919;48.274;12.292;2024-03-06T05:53:28;31.80;;;18.93;;
1799;SDS011;919;48.274;12.292;2024-03-06T05:55:55;33.53;;;19.47;;
1799;SDS011;919;48.274;12.292;2024-03-06T05:58:21;34.00;;;19.23;;
1799;SDS011;919;48.274;12.292;2024-03-06T06:00:48;26.93;;;17.13;;
1799;SDS011;919;48.274;12.292;2024-03-06T06:03:15;33.20;;;19.67;;
1799;SDS011;919;48.274;12.292;2024-03-06T06:05:43;31.77;;;18.30;;
1799;SDS011;919;48.274;12.292;2024-03-06T06:08:10;33.10;;;19.00;;
1799;SDS011;919;48.274;12.292;2024-03-06T06:10:37;33.13;;;19.90;;
1799;SDS011;919;48.274;12.292;2024-03-06T06:13:04;32.93;;;18.77;;
1799;SDS011;919;48.274;12.292;2024-03-06T06:15:30;30.63;;;18.87;;
1799;SDS011;919;48.274;12.292;2024-03-06T06:17:57;33.47;;;18.40;;
1799;SDS011;919;48.274;12.292;2024-03-06T06:20:24;31.30;;;18.80;;
1799;SDS011;919;48.274;12.292;2024-03-06T06:22:52;32.43;;;18.80;;
1799;SDS011;919;48.274;12.292;2024-03-06T06:25:19;32.83;;;20.17;;
1799;SDS011;919;48.274;12.292;2024-03-06T06:27:46;34.97;;;20.13;;
1799;SDS011;919;48.274;12.292;2024-03-06T06:30:14;37.13;;;21.37;;
1799;SDS011;919;48.274;12.292;2024-03-06T06:32:41;37.07;;;21.00;;
1799;SDS011;919;48.274;12.292;2024-03-06T06:35:08;38.40;;;19.90;;
1799;SDS011;919;48.274;12.292;2024-03-06T06:37:36;40.10;;;21.50;;
1799;SDS011;919;48.274;12.292;2024-03-06T06:40:06;36.93;;;19.50;;
1799;SDS011;919;48.274;12.292;2024-03-06T06:42:33;36.60;;;20.17;;
1799;SDS011;919;48.274;12.292;2024-03-06T06:45:00;43.70;;;22.30;;
1799;SDS011;919;48.274;12.292;2024-03-06T06:47:27;40.37;;;23.17;;
1799;SDS011;919;48.274;12.292;2024-03-06T06:49:54;38.83;;;23.33;;
1799;SDS011;919;48.274;12.292;2024-03-06T06:52:21;39.20;;;23.93;;
1799;SDS011;919;48.274;12.292;2024-03-06T06:54:48;42.13;;;23.40;;
1799;SDS011;919;48.274;12.292;2024-03-06T06:57:17;41.63;;;22.83;;
1799;SDS011;919;48.274;12.292;2024-03-06T06:59:45;39.80;;;22.57;;
1799;SDS011;919;48.274;12.292;2024-03-06T07:02:12;55.03;;;24.27;;
1799;SDS011;919;48.274;12.292;2024-03-06T07:04:39;47.00;;;23.53;;
1799;SDS011;919;48.274;12.292;2024-03-06T07:07:06;47.57;;;24.00;;
1799;SDS011;919;48.274;12.292;2024-03-06T07:09:33;40.57;;;21.60;;
1799;SDS011;919;48.274;12.292;2024-03-06T07:12:00;46.40;;;23.00;;
1799;SDS011;919;48.274;12.292;2024-03-06T07:14:29;41.47;;;21.73;;
1799;SDS011;919;48.274;12.292;2024-03-06T07:16:55;44.93;;;22.93;;
1799;SDS011;919;48.274;12.292;2024-03-06T07:19:22;43.80;;;24.20;;
1799;SDS011;919;48.274;12.292;2024-03-06T07:21:49;44.93;;;23.87;;
1799;SDS011;919;48.274;12.292;2024-03-06T07:24:17;44.50;;;23.30;;
1799;SDS011;919;48.274;12.292;2024-03-06T07:26:43;38.27;;;22.60;;
1799;SDS011;919;48.274;12.292;2024-03-06T07:29:10;40.10;;;24.70;;
1799;SDS011;919;48.274;12.292;2024-03-06T07:31:41;35.00;;;21.10;;
1799;SDS011;919;48.274;12.292;2024-03-06T07:34:08;41.70;;;25.80;;
1799;SDS011;919;48.274;12.292;2024-03-06T07:36:36;36.10;;;21.00;;
1799;SDS011;919;48.274;12.292;2024-03-06T07:39:03;41.63;;;23.10;;
1799;SDS011;919;48.274;12.292;2024-03-06T07:41:30;39.50;;;21.03;;
1799;SDS011;919;48.274;12.292;2024-03-06T07:43:57;45.23;;;22.87;;
1799;SDS011;919;48.274;12.292;2024-03-06T07:46:25;44.00;;;22.13;;
1799;SDS011;919;48.274;12.292;2024-03-06T07:48:53;33.00;;;20.77;;
1799;SDS011;919;48.274;12.292;2024-03-06T07:51:20;37.33;;;21.43;;
1799;SDS011;919;48.274;12.292;2024-03-06T07:53:46;37.87;;;21.57;;
1799;SDS011;919;48.274;12.292;2024-03-06T07:56:15;32.43;;;20.97;;
1799;SDS011;919;48.274;12.292;2024-03-06T07:58:42;32.53;;;19.30;;
1799;SDS011;919;48.274;12.292;2024-03-06T08:01:09;38.77;;;21.37;;
1799;SDS011;919;48.274;12.292;2024-03-06T08:03:38;39.47;;;21.13;;
1799;SDS011;919;48.274;12.292;2024-03-06T08:06:07;34.77;;;21.13;;
1799;SDS011;919;48.274;12.292;2024-03-06T08:08:34;33.77;;;20.00;;
1799;SDS011;919;48.274;12.292;2024-03-06T08:11:00;37.00;;;21.00;;
1799;SDS011;919;48.274;12.292;2024-03-06T08:13:27;31.93;;;20.93;;
1799;SDS011;919;48.274;12.292;2024-03-06T08:15:54;32.23;;;18.80;;
1799;SDS011;919;48.274;12.292;2024-03-06T08:18:21;29.80;;;19.60;;
1799;SDS011;919;48.274;12.292;2024-03-06T08:20:48;32.40;;;20.67;;
1799;SDS011;919;48.274;12.292;2024-03-06T08:23:16;32.93;;;18.83;;
1799;SDS011;919;48.274;12.292;2024-03-06T08:25:43;30.50;;;18.40;;
1799;SDS011;919;48.274;12.292;2024-03-06T08:28:10;30.80;;;19.33;;
1799;SDS011;919;48.274;12.292;2024-03-06T08:30:36;29.93;;;17.87;;
1799;SDS011;919;48.274;12.292;2024-03-06T08:33:03;31.50;;;18.67;;
1799;SDS011;919;48.274;12.292;2024-03-06T08:35:30;28.20;;;18.40;;
1799;SDS011;919;48.274;12.292;2024-03-06T08:37:57;25.47;;;16.73;;
1799;SDS011;919;48.274;12.292;2024-03-06T08:40:25;29.83;;;17.50;;
1799;SDS011;919;48.274;12.292;2024-03-06T08:42:53;26.63;;;16.27;;
1799;SDS011;919;48.274;12.292;2024-03-06T08:45:20;28.27;;;17.70;;
1799;SDS011;919;48.274;12.292;2024-03-06T08:47:48;26.83;;;16.60;;
1799;SDS011;919;48.274;12.292;2024-03-06T08:50:15;26.50;;;15.17;;
1799;SDS011;919;48.274;12.292;2024-03-06T08:52:42;26.20;;;15.73;;
1799;SDS011;919;48.274;12.292;2024-03-06T08:55:09;24.43;;;15.67;;
1799;SDS011;919;48.274;12.292;2024-03-06T08:57:37;28.90;;;16.03;;
1799;SDS011;919;48.274;12.292;2024-03-06T09:00:05;21.07;;;13.33;;
1799;SDS011;919;48.274;12.292;2024-03-06T09:02:35;27.67;;;15.60;;
1799;SDS011;919;48.274;12.292;2024-03-06T09:05:03;27.17;;;15.17;;
1799;SDS011;919;48.274;12.292;2024-03-06T09:07:31;21.40;;;13.50;;
1799;SDS011;919;48.274;12.292;2024-03-06T09:10:02;21.77;;;15.40;;
1799;SDS011;919;48.274;12.292;2024-03-06T09:12:30;23.33;;;14.80;;
1799;SDS011;919;48.274;12.292;2024-03-06T09:14:59;26.40;;;15.27;;
1799;SDS011;919;48.274;12.292;2024-03-06T09:17:27;27.77;;;14.33;;
1799;SDS011;919;48.274;12.292;2024-03-06T09:19:54;21.50;;;15.03;;
1799;SDS011;919;48.274;12.292;2024-03-06T09:22:22;23.60;;;14.70;;
1799;SDS011;919;48.274;12.292;2024-03-06T09:24:48;24.13;;;13.53;;
1799;SDS011;919;48.274;12.292;2024-03-06T09:27:15;35.23;;;15.33;;
1799;SDS011;919;48.274;12.292;2024-03-06T09:29:43;20.47;;;13.10;;
1799;SDS011;919;48.274;12.292;2024-03-06T09:32:11;23.27;;;15.50;;
1799;SDS011;919;48.274;12.292;2024-03-06T09:34:40;19.77;;;13.10;;
1799;SDS011;919;48.274;12.292;2024-03-06T09:37:08;25.87;;;14.60;;
1799;SDS011;919;48.274;12.292;2024-03-06T09:39:35;26.50;;;15.50;;
1799;SDS011;919;48.274;12.292;2024-03-06T09:42:02;18.27;;;12.63;;
1799;SDS011;919;48.274;12.292;2024-03-06T09:44:29;23.90;;;14.23;;
1799;SDS011;919;48.274;12.292;2024-03-06T09:46:56;21.00;;;14.00;;
1799;SDS011;919;48.274;12.292;2024-03-06T09:49:30;22.07;;;14.77;;
1799;SDS011;919;48.274;12.292;2024-03-06T09:51:57;23.83;;;13.90;;
1799;SDS011;919;48.274;12.292;2024-03-06T09:54:25;21.67;;;13.23;;
1799;SDS011;919;48.274;12.292;2024-03-06T09:56:53;21.37;;;13.63;;
1799;SDS011;919;48.274;12.292;2024-03-06T09:59:22;23.60;;;14.30;;
1799;SDS011;919;48.274;12.292;2024-03-06T10:01:49;21.30;;;12.87;;
1799;SDS011;919;48.274;12.292;2024-03-06T10:04:19;19.20;;;12.10;;
1799;SDS011;919;48.274;12.292;2024-03-06T10:06:47;19.40;;;12.40;;
1799;SDS011;919;48.274;12.292;2024-03-06T10:09:16;20.50;;;11.93;;
1799;SDS011;919;48.274;12.292;2024-03-06T10:11:44;26.27;;;12.57;;
1799;SDS011;919;48.274;12.292;2024-03-06T10:14:11;20.40;;;12.07;;
1799;SDS011;919;48.274;12.292;2024-03-06T10:16:51;22.07;;;13.30;;
1799;SDS011;919;48.274;12.292;2024-03-06T10:19:18;23.43;;;13.43;;
1799;SDS011;919;48.274;12.292;2024-03-06T10:21:48;25.70;;;13.47;;
1799;SDS011;919;48.274;12.292;2024-03-06T10:24:19;26.70;;;14.33;;
1799;SDS011;919;48.274;12.292;2024-03-06T10:26:48;25.10;;;14.80;;
1799;SDS011;919;48.274;12.292;2024-03-06T10:29:16;22.23;;;13.80;;
1799;SDS011;919;48.274;12.292;2024-03-06T10:31:47;26.20;;;14.87;;
1799;SDS011;919;48.274;12.292;2024-03-06T10:34:16;23.37;;;13.93;;
1799;SDS011;919;48.274;12.292;2024-03-06T10:36:43;23.50;;;14.17;;
1799;SDS011;919;48.274;12.292;2024-03-06T10:39:12;31.00;;;15.03;;
1799;SDS011;919;48.274;12.292;2024-03-06T10:41:40;24.40;;;14.37;;
1799;SDS011;919;48.274;12.292;2024-03-06T10:44:09;26.00;;;14.30;;
1799;SDS011;919;48.274;12.292;2024-03-06T10:46:39;22.20;;;14.83;;
1799;SDS011;919;48.274;12.292;2024-03-06T10:49:12;30.93;;;17.60;;
1799;SDS011;919;48.274;12.292;2024-03-06T10:51:40;22.60;;;14.30;;
1799;SDS011;919;48.274;12.292;2024-03-06T10:54:08;26.00;;;14.90;;
1799;SDS011;919;48.274;12.292;2024-03-06T10:56:37;25.97;;;15.07;;
1799;SDS011;919;48.274;12.292;2024-03-06T10:59:07;27.27;;;14.83;;
1799;SDS011;919;48.274;12.292;2024-03-06T11:01:36;31.30;;;17.57;;
1799;SDS011;919;48.274;12.292;2024-03-06T11:04:04;22.83;;;15.00;;
1799;SDS011;919;48.274;12.292;2024-03-06T11:06:32;26.67;;;14.60;;
1799;SDS011;919;48.274;12.292;2024-03-06T11:08:59;23.63;;;15.43;;
1799;SDS011;919;48.274;12.292;2024-03-06T11:11:27;20.93;;;14.60;;
1799;SDS011;919;48.274;12.292;2024-03-06T11:13:55;22.93;;;14.30;;
1799;SDS011;919;48.274;12.292;2024-03-06T11:16:26;24.77;;;14.57;;
1799;SDS011;919;48.274;12.292;2024-03-06T11:19:04;26.73;;;14.50;;
1799;SDS011;919;48.274;12.292;2024-03-06T11:21:32;20.37;;;13.03;;
1799;SDS011;919;48.274;12.292;2024-03-06T11:24:12;25.30;;;14.50;;
1799;SDS011;919;48.274;12.292;2024-03-06T11:26:45;22.10;;;14.87;;
1799;SDS011;919;48.274;12.292;2024-03-06T11:29:16;20.57;;;12.80;;
1799;SDS011;919;48.274;12.292;2024-03-06T11:32:00;22.30;;;14.67;;
1799;SDS011;919;48.274;12.292;2024-03-06T11:34:28;25.83;;;15.53;;
1799;SDS011;919;48.274;12.292;2024-03-06T11:36:56;21.13;;;14.17;;
1799;SDS011;919;48.274;12.292;2024-03-06T11:39:24;24.53;;;15.77;;
1799;SDS011;919;48.274;12.292;2024-03-06T11:41:53;25.83;;;17.03;;
1799;SDS011;919;48.274;12.292;2024-03-06T11:44:22;22.60;;;14.80;;
1799;SDS011;919;48.274;12.292;2024-03-06T11:46:50;21.50;;;14.27;;
1799;SDS011;919;48.274;12.292;2024-03-06T11:49:24;22.53;;;15.87;;
1799;SDS011;919;48.274;12.292;2024-03-06T11:51:51;20.77;;;14.37;;
1799;SDS011;919;48.274;12.292;2024-03-06T11:54:19;24.47;;;15.17;;
1799;SDS011;919;48.274;12.292;2024-03-06T11:56:48;28.90;;;15.47;;
1799;SDS011;919;48.274;12.292;2024-03-06T11:59:21;23.77;;;16.50;;
1799;SDS011;919;48.274;12.292;2024-03-06T12:01:49;22.60;;;14.83;;
1799;SDS011;919;48.274;12.292;2024-03-06T12:04:16;26.20;;;15.53;;
1799;SDS011;919;48.274;12.292;2024-03-06T12:06:44;23.03;;;14.70;;
1799;SDS011;919;48.274;12.292;2024-03-06T12:09:10;24.13;;;14.93;;
1799;SDS011;919;48.274;12.292;2024-03-06T12:11:38;24.10;;;16.20;;
1799;SDS011;919;48.274;12.292;2024-03-06T12:14:05;21.23;;;14.03;;
1799;SDS011;919;48.274;12.292;2024-03-06T12:16:34;28.47;;;13.77;;
1799;SDS011;919;48.274;12.292;2024-03-06T12:19:01;23.43;;;15.10;;
1799;SDS011;919;48.274;12.292;2024-03-06T12:21:28;25.90;;;15.47;;
1799;SDS011;919;48.274;12.292;2024-03-06T12:24:02;25.17;;;15.30;;
1799;SDS011;919;48.274;12.292;2024-03-06T12:26:30;25.77;;;15.73;;
1799;SDS011;919;48.274;12.292;2024-03-06T12:29:03;28.90;;;15.23;;
1799;SDS011;919;48.274;12.292;2024-03-06T12:31:31;27.93;;;14.57;;
1799;SDS011;919;48.274;12.292;2024-03-06T12:34:01;28.60;;;16.17;;
1799;SDS011;919;48.274;12.292;2024-03-06T12:36:28;28.07;;;15.27;;
1799;SDS011;919;48.274;12.292;2024-03-06T12:38:56;20.13;;;14.43;;
1799;SDS011;919;48.274;12.292;2024-03-06T12:41:24;26.10;;;16.63;;
1799;SDS011;919;48.274;12.292;2024-03-06T12:43:52;27.83;;;15.40;;
1799;SDS011;919;48.274;12.292;2024-03-06T12:46:20;27.67;;;16.60;;
1799;SDS011;919;48.274;12.292;2024-03-06T12:48:48;25.33;;;15.47;;
1799;SDS011;919;48.274;12.292;2024-03-06T12:51:16;22.90;;;13.60;;
1799;SDS011;919;48.274;12.292;2024-03-06T12:53:42;26.47;;;16.90;;
1799;SDS011;919;48.274;12.292;2024-03-06T12:56:09;21.60;;;15.00;;
1799;SDS011;919;48.274;12.292;2024-03-06T12:58:36;20.20;;;14.40;;
1799;SDS011;919;48.274;12.292;2024-03-06T13:01:03;21.20;;;14.97;;
1799;SDS011;919;48.274;12.292;2024-03-06T13:03:30;25.10;;;15.63;;
1799;SDS011;919;48.274;12.292;2024-03-06T13:05:58;22.77;;;15.77;;
1799;SDS011;919;48.274;12.292;2024-03-06T13:08:26;25.30;;;15.63;;
1799;SDS011;919;48.274;12.292;2024-03-06T13:10:52;26.27;;;15.33;;
1799;SDS011;919;48.274;12.292;2024-03-06T13:13:19;23.63;;;15.90;;
1799;SDS011;919;48.274;12.292;2024-03-06T13:15:48;29.83;;;15.60;;
1799;SDS011;919;48.274;12.292;2024-03-06T13:18:15;25.07;;;15.00;;
1799;SDS011;919;48.274;12.292;2024-03-06T13:20:42;23.50;;;15.10;;
1799;SDS011;919;48.274;12.292;2024-03-06T13:23:11;24.00;;;15.20;;
1799;SDS011;919;48.274;12.292;2024-03-06T13:25:38;26.77;;;16.33;;
1799;SDS011;919;48.274;12.292;2024-03-06T13:28:05;19.53;;;14.00;;
1799;SDS011;919;48.274;12.292;2024-03-06T13:30:32;24.00;;;16.73;;
1799;SDS011;919;48.274;12.292;2024-03-06T13:32:59;21.17;;;13.23;;
1799;SDS011;919;48.274;12.292;2024-03-06T13:35:25;24.67;;;15.10;;
1799;SDS011;919;48.274;12.292;2024-03-06T13:37:53;22.57;;;15.97;;
1799;SDS011;919;48.274;12.292;2024-03-06T13:40:21;28.13;;;16.70;;
1799;SDS011;919;48.274;12.292;2024-03-06T13:42:48;24.70;;;14.63;;
1799;SDS011;919;48.274;12.292;2024-03-06T13:45:15;23.80;;;15.70;;
1799;SDS011;919;48.274;12.292;2024-03-06T13:47:42;24.57;;;16.10;;
1799;SDS011;919;48.274;12.292;2024-03-06T13:50:10;24.37;;;15.63;;
1799;SDS011;919;48.274;12.292;2024-03-06T13:52:38;27.07;;;14.43;;
1799;SDS011;919;48.274;12.292;2024-03-06T13:55:06;23.80;;;17.10;;
1799;SDS011;919;48.274;12.292;2024-03-06T13:57:35;21.37;;;14.30;;
1799;SDS011;919;48.274;12.292;2024-03-06T14:00:03;27.17;;;16.50;;
1799;SDS011;919;48.274;12.292;2024-03-06T14:02:31;24.37;;;15.47;;
1799;SDS011;919;48.274;12.292;2024-03-06T14:04:58;28.10;;;16.20;;
1799;SDS011;919;48.274;12.292;2024-03-06T14:07:25;23.20;;;15.07;;
1799;SDS011;919;48.274;12.292;2024-03-06T14:09:52;23.70;;;14.50;;
1799;SDS011;919;48.274;12.292;2024-03-06T14:12:21;24.17;;;15.60;;
1799;SDS011;919;48.274;12.292;2024-03-06T14:14:50;26.77;;;14.30;;
1799;SDS011;919;48.274;12.292;2024-03-06T14:17:16;24.67;;;14.43;;
1799;SDS011;919;48.274;12.292;2024-03-06T14:19:43;26.33;;;14.60;;
1799;SDS011;919;48.274;12.292;2024-03-06T14:22:10;24.17;;;15.10;;
1799;SDS011;919;48.274;12.292;2024-03-06T14:24:37;21.93;;;14.80;;
1799;SDS011;919;48.274;12.292;2024-03-06T14:27:04;25.60;;;15.97;;
1799;SDS011;919;48.274;12.292;2024-03-06T14:29:31;27.07;;;15.43;;
1799;SDS011;919;48.274;12.292;2024-03-06T14:31:59;21.40;;;13.67;;
1799;SDS011;919;48.274;12.292;2024-03-06T14:34:26;23.30;;;14.27;;
1799;SDS011;919;48.274;12.292;2024-03-06T14:36:53;19.70;;;13.80;;
1799;SDS011;919;48.274;12.292;2024-03-06T14:39:20;21.77;;;14.63;;
1799;SDS011;919;48.274;12.292;2024-03-06T14:41:48;23.70;;;15.93;;
1799;SDS011;919;48.274;12.292;2024-03-06T14:44:14;20.57;;;14.17;;
1799;SDS011;919;48.274;12.292;2024-03-06T14:46:41;29.40;;;16.83;;
1799;SDS011;919;48.274;12.292;2024-03-06T14:49:09;19.60;;;11.87;;
1799;SDS011;919;48.274;12.292;2024-03-06T14:51:36;26.57;;;13.67;;